sensor_id;sensor_type;location;lat;lon;timestamp;pressure;altitude;pressure_sealevel;temperature;humidity
52735;BME280;38631;47.572;10.704;2022-12-07T00:02:01;92393.22;;;0.45;100.00
52735;BME280;38631;47.572;10.704;2022-12-07T00:04:26;92393.78;;;0.47;100.00
52735;BME280;38631;47.572;10.704;2022-12-07T00:06:52;92393.50;;;0.43;100.00
52735;BME280;38631;47.572;10.704;2022-12-07T00:09:18;92388.50;;;0.41;100.00
52735;BME280;38631;47.572;10.704;2022-12-07T00:11:49;92394.50;;;0.42;100.00
52735;BME280;38631;47.572;10.704;2022-12-07T00:14:15;92391.34;;;0.40;100.00
52735;BME280;38631;47.572;10.704;2022-12-07T00:16:42;92396.06;;;0.38;100.00
52735;BME280;38631;47.572;10.704;2022-12-07T00:19:10;92387.72;;;0.41;100.00
52735;BME280;38631;47.572;10.704;2022-12-07T00:21:36;92388.31;;;0.48;100.00
52735;BME280;38631;47.572;10.704;2022-12-07T00:24:03;92384.66;;;0.49;100.00
52735;BME280;38631;47.572;10.704;2022-12-07T00:26:35;92385.72;;;0.48;100.00
52735;BME280;38631;47.572;10.704;2022-12-07T00:29:11;92381.22;;;0.43;100.00
52735;BME280;38631;47.572;10.704;2022-12-07T00:31:38;92379.88;;;0.41;100.00
52735;BME280;38631;47.572;10.704;2022-12-07T00:34:05;92368.91;;;0.39;100.00
52735;BME280;38631;47.572;10.704;2022-12-07T00:36:30;92372.34;;;0.45;100.00
52735;BME280;38631;47.572;10.704;2022-12-07T00:38:58;92373.63;;;0.42;100.00
52735;BME280;38631;47.572;10.704;2022-12-07T00:41:24;92376.19;;;0.37;100.00
52735;BME280;38631;47.572;10.704;2022-12-07T00:43:51;92369.41;;;0.36;100.00
52735;BME280;38631;47.572;10.704;2022-12-07T00:46:17;92370.13;;;0.31;100.00
52735;BME280;38631;47.572;10.704;2022-12-07T00:48:43;92362.78;;;0.28;100.00
52735;BME280;38631;47.572;10.704;2022-12-07T00:51:14;92365.13;;;0.30;100.00
52735;BME280;38631;47.572;10.704;2022-12-07T00:53:40;92364.13;;;0.31;100.00
52735;BME280;38631;47.572;10.704;2022-12-07T00:56:11;92366.72;;;0.31;100.00
52735;BME280;38631;47.572;10.704;2022-12-07T00:58:37;92360.22;;;0.33;100.00
52735;BME280;38631;47.572;10.704;2022-12-07T01:01:04;92361.25;;;0.32;100.00
52735;BME280;38631;47.572;10.704;2022-12-07T01:03:30;92354.69;;;0.30;100.00
52735;BME280;38631;47.572;10.704;2022-12-07T01:05:56;92360.41;;;0.27;100.00
52735;BME280;38631;47.572;10.704;2022-12-07T01:08:22;92357.31;;;0.30;100.00
52735;BME280;38631;47.572;10.704;2022-12-07T01:10:48;92364.91;;;0.31;100.00
52735;BME280;38631;47.572;10.704;2022-12-07T01:13:14;92364.94;;;0.36;100.00
52735;BME280;38631;47.572;10.704;2022-12-07T01:15:41;92368.13;;;0.38;100.00
52735;BME280;38631;47.572;10.704;2022-12-07T01:18:06;92360.78;;;0.35;100.00
52735;BME280;38631;47.572;10.704;2022-12-07T01:20:32;92371.97;;;0.31;100.00
52735;BME280;38631;47.572;10.704;2022-12-07T01:22:57;92372.00;;;0.36;100.00
52735;BME280;38631;47.572;10.704;2022-12-07T01:25:22;92376.19;;;0.37;100.00
52735;BME280;38631;47.572;10.704;2022-12-07T01:27:48;92376.00;;;0.43;100.00
52735;BME280;38631;47.572;10.704;2022-12-07T01:30:13;92382.50;;;0.41;100.00
52735;BME280;38631;47.572;10.704;2022-12-07T01:32:39;92375.69;;;0.40;100.00
52735;BME280;38631;47.572;10.704;2022-12-07T01:35:04;92380.38;;;0.38;100.00
52735;BME280;38631;47.572;10.704;2022-12-07T01:37:34;92381.97;;;0.39;100.00
52735;BME280;38631;47.572;10.704;2022-12-07T01:40:00;92384.00;;;0.37;100.00
52735;BME280;38631;47.572;10.704;2022-12-07T01:42:25;92383.00;;;0.38;100.00
52735;BME280;38631;47.572;10.704;2022-12-07T01:47:43;92383.22;;;0.36;100.00
52735;BME280;38631;47.572;10.704;2022-12-07T01:50:11;92376.97;;;0.37;100.00
52735;BME280;38631;47.572;10.704;2022-12-07T01:52:38;92379.84;;;0.36;100.00
52735;BME280;38631;47.572;10.704;2022-12-07T01:55:08;92383.97;;;0.32;100.00
52735;BME280;38631;47.572;10.704;2022-12-07T01:57:37;92380.56;;;0.31;100.00
52735;BME280;38631;47.572;10.704;2022-12-07T02:00:05;92369.84;;;0.28;100.00
52735;BME280;38631;47.572;10.704;2022-12-07T02:02:38;92374.97;;;0.22;100.00
52735;BME280;38631;47.572;10.704;2022-12-07T02:05:05;92389.13;;;0.27;100.00
52735;BME280;38631;47.572;10.704;2022-12-07T02:07:32;92381.66;;;0.35;100.00
52735;BME280;38631;47.572;10.704;2022-12-07T02:10:17;92380.56;;;0.31;100.00
52735;BME280;38631;47.572;10.704;2022-12-07T02:12:44;92376.69;;;0.34;100.00
52735;BME280;38631;47.572;10.704;2022-12-07T02:15:11;92373.53;;;0.32;100.00
52735;BME280;38631;47.572;10.704;2022-12-07T02:20:33;92375.16;;;0.38;100.00
52735;BME280;38631;47.572;10.704;2022-12-07T02:28:30;92369.94;;;0.38;100.00
52735;BME280;38631;47.572;10.704;2022-12-07T02:31:01;92364.41;;;0.34;100.00
52735;BME280;38631;47.572;10.704;2022-12-07T02:33:33;92360.47;;;0.32;100.00
52735;BME280;38631;47.572;10.704;2022-12-07T02:36:11;92367.75;;;0.30;100.00
52735;BME280;38631;47.572;10.704;2022-12-07T02:38:45;92352.13;;;0.35;100.00
52735;BME280;38631;47.572;10.704;2022-12-07T02:41:17;92353.69;;;0.31;100.00
52735;BME280;38631;47.572;10.704;2022-12-07T02:43:50;92361.25;;;0.32;100.00
52735;BME280;38631;47.572;10.704;2022-12-07T02:46:23;92363.34;;;0.30;100.00
52735;BME280;38631;47.572;10.704;2022-12-07T02:48:52;92353.19;;;0.34;100.00
52735;BME280;38631;47.572;10.704;2022-12-07T02:51:19;92355.25;;;0.32;100.00
52735;BME280;38631;47.572;10.704;2022-12-07T02:53:44;92351.56;;;0.28;100.00
52735;BME280;38631;47.572;10.704;2022-12-07T02:59:17;92355.50;;;0.30;100.00
52735;BME280;38631;47.572;10.704;2022-12-07T03:05:06;92345.34;;;0.34;100.00
52735;BME280;38631;47.572;10.704;2022-12-07T03:07:58;92340.84;;;0.29;100.00
52735;BME280;38631;47.572;10.704;2022-12-07T03:10:43;92351.84;;;0.31;100.00
52735;BME280;38631;47.572;10.704;2022-12-07T03:18:46;92352.41;;;0.33;100.00
52735;BME280;38631;47.572;10.704;2022-12-07T03:21:18;92352.19;;;0.40;100.00
52735;BME280;38631;47.572;10.704;2022-12-07T03:23:48;92348.75;;;0.34;100.00
52735;BME280;38631;47.572;10.704;2022-12-07T03:26:17;92353.72;;;0.36;100.00
52735;BME280;38631;47.572;10.704;2022-12-07T03:28:50;92343.50;;;0.34;100.00
52735;BME280;38631;47.572;10.704;2022-12-07T03:31:23;92347.69;;;0.30;100.00
52735;BME280;38631;47.572;10.704;2022-12-07T03:34:03;92349.75;;;0.28;100.00
52735;BME280;38631;47.572;10.704;2022-12-07T03:36:37;92341.59;;;0.25;100.00
52735;BME280;38631;47.572;10.704;2022-12-07T03:39:41;92342.91;;;0.27;100.00
52735;BME280;38631;47.572;10.704;2022-12-07T03:42:10;92341.50;;;0.14;100.00
52735;BME280;38631;47.572;10.704;2022-12-07T03:44:36;92334.88;;;0.07;100.00
52735;BME280;38631;47.572;10.704;2022-12-07T03:47:12;92337.56;;;0.12;100.00
52735;BME280;38631;47.572;10.704;2022-12-07T03:49:46;92334.44;;;0.15;100.00
52735;BME280;38631;47.572;10.704;2022-12-07T03:52:24;92340.56;;;0.26;100.00
52735;BME280;38631;47.572;10.704;2022-12-07T03:55:09;92343.50;;;0.34;100.00
52735;BME280;38631;47.572;10.704;2022-12-07T03:57:35;92344.84;;;0.37;100.00
52735;BME280;38631;47.572;10.704;2022-12-07T04:00:04;92342.88;;;0.22;100.00
52735;BME280;38631;47.572;10.704;2022-12-07T04:02:32;92353.41;;;0.32;100.00
52735;BME280;38631;47.572;10.704;2022-12-07T04:04:58;92350.75;;;0.27;100.00
52735;BME280;38631;47.572;10.704;2022-12-07T04:07:24;92340.81;;;0.24;100.00
52735;BME280;38631;47.572;10.704;2022-12-07T04:09:50;92341.94;;;0.33;100.00
52735;BME280;38631;47.572;10.704;2022-12-07T04:12:15;92339.06;;;0.35;100.00
52735;BME280;38631;47.572;10.704;2022-12-07T04:14:41;92346.34;;;0.28;100.00
52735;BME280;38631;47.572;10.704;2022-12-07T04:17:06;92344.16;;;0.19;100.00
52735;BME280;38631;47.572;10.704;2022-12-07T04:19:33;92348.31;;;0.15;100.00
52735;BME280;38631;47.572;10.704;2022-12-07T04:22:00;92342.28;;;0.15;100.00
52735;BME280;38631;47.572;10.704;2022-12-07T04:24:25;92341.38;;;0.04;100.00
52735;BME280;38631;47.572;10.704;2022-12-07T04:26:51;92338.72;;;-0.01;100.00
52735;BME280;38631;47.572;10.704;2022-12-07T04:29:17;92341.16;;;0.06;100.00
52735;BME280;38631;47.572;10.704;2022-12-07T04:31:43;92350.31;;;0.08;100.00
52735;BME280;38631;47.572;10.704;2022-12-07T04:34:09;92346.59;;;0.04;100.00
52735;BME280;38631;47.572;10.704;2022-12-07T04:36:35;92345.31;;;0.07;100.00
52735;BME280;38631;47.572;10.704;2022-12-07T04:39:01;92342.81;;;0.17;100.00
52735;BME280;38631;47.572;10.704;2022-12-07T04:41:27;92346.06;;;0.29;100.00
52735;BME280;38631;47.572;10.704;2022-12-07T04:43:57;92346.63;;;0.31;100.00
52735;BME280;38631;47.572;10.704;2022-12-07T04:46:24;92349.47;;;0.30;100.00
52735;BME280;38631;47.572;10.704;2022-12-07T04:48:50;92344.25;;;0.30;100.00
52735;BME280;38631;47.572;10.704;2022-12-07T04:51:19;92335.69;;;0.34;100.00
52735;BME280;38631;47.572;10.704;2022-12-07T04:53:44;92341.94;;;0.33;100.00
52735;BME280;38631;47.572;10.704;2022-12-07T04:56:10;92333.56;;;0.31;100.00
52735;BME280;38631;47.572;10.704;2022-12-07T04:58:35;92349.19;;;0.26;100.00
52735;BME280;38631;47.572;10.704;2022-12-07T05:01:00;92348.41;;;0.26;100.00
52735;BME280;38631;47.572;10.704;2022-12-07T05:03:26;92355.47;;;0.25;100.00
52735;BME280;38631;47.572;10.704;2022-12-07T05:05:51;92348.47;;;0.31;100.00
52735;BME280;38631;47.572;10.704;2022-12-07T05:08:16;92348.88;;;0.22;100.00
52735;BME280;38631;47.572;10.704;2022-12-07T05:10:42;92357.84;;;0.32;100.00
52735;BME280;38631;47.572;10.704;2022-12-07T05:13:07;92349.78;;;0.33;100.00
52735;BME280;38631;47.572;10.704;2022-12-07T05:15:32;92345.84;;;0.31;100.00
52735;BME280;38631;47.572;10.704;2022-12-07T05:17:58;92347.34;;;0.27;100.00
52735;BME280;38631;47.572;10.704;2022-12-07T05:20:24;92345.25;;;0.24;100.00
52735;BME280;38631;47.572;10.704;2022-12-07T05:22:49;92349.38;;;0.19;100.00
52735;BME280;38631;47.572;10.704;2022-12-07T05:25:14;92337.22;;;0.30;100.00
52735;BME280;38631;47.572;10.704;2022-12-07T05:27:40;92344.66;;;0.16;100.00
52735;BME280;38631;47.572;10.704;2022-12-07T05:30:05;92349.19;;;0.26;100.00
52735;BME280;38631;47.572;10.704;2022-12-07T05:32:31;92340.25;;;0.22;100.00
52735;BME280;38631;47.572;10.704;2022-12-07T05:34:56;92338.16;;;0.19;100.00
52735;BME280;38631;47.572;10.704;2022-12-07T05:37:22;92338.09;;;0.14;100.00
52735;BME280;38631;47.572;10.704;2022-12-07T05:39:47;92338.16;;;0.19;100.00
52735;BME280;38631;47.572;10.704;2022-12-07T05:42:12;92340.53;;;0.20;100.00
52735;BME280;38631;47.572;10.704;2022-12-07T05:44:43;92337.97;;;0.26;100.00
52735;BME280;38631;47.572;10.704;2022-12-07T05:47:10;92340.53;;;0.20;100.00
52735;BME280;38631;47.572;10.704;2022-12-07T05:49:35;92342.69;;;0.29;100.00
52735;BME280;38631;47.572;10.704;2022-12-07T05:52:01;92353.41;;;0.32;100.00
52735;BME280;38631;47.572;10.704;2022-12-07T05:54:27;92346.34;;;0.28;100.00
52735;BME280;38631;47.572;10.704;2022-12-07T05:56:52;92355.50;;;0.30;100.00
52735;BME280;38631;47.572;10.704;2022-12-07T05:59:17;92345.84;;;0.31;100.00
52735;BME280;38631;47.572;10.704;2022-12-07T06:01:52;92359.72;;;0.36;100.00
52735;BME280;38631;47.572;10.704;2022-12-07T06:04:18;92348.28;;;0.42;100.00
52735;BME280;38631;47.572;10.704;2022-12-07T06:06:45;92354.78;;;0.40;100.00
52735;BME280;38631;47.572;10.704;2022-12-07T06:09:10;92350.28;;;0.30;100.00
52735;BME280;38631;47.572;10.704;2022-12-07T06:11:36;92353.91;;;0.29;100.00
52735;BME280;38631;47.572;10.704;2022-12-07T06:14:20;92360.72;;;0.30;100.00
52735;BME280;38631;47.572;10.704;2022-12-07T06:16:45;92354.41;;;0.26;100.00
52735;BME280;38631;47.572;10.704;2022-12-07T06:19:11;92360.00;;;0.40;100.00
52735;BME280;38631;47.572;10.704;2022-12-07T06:21:36;92365.56;;;0.43;100.00
52735;BME280;38631;47.572;10.704;2022-12-07T06:24:02;92368.91;;;0.39;100.00
52735;BME280;38631;47.572;10.704;2022-12-07T06:26:27;92361.94;;;0.22;100.00
52735;BME280;38631;47.572;10.704;2022-12-07T06:28:52;92362.28;;;0.31;100.00
52735;BME280;38631;47.572;10.704;2022-12-07T06:31:18;92364.44;;;0.39;100.00
52735;BME280;38631;47.572;10.704;2022-12-07T06:33:43;92366.78;;;0.36;100.00
52735;BME280;38631;47.572;10.704;2022-12-07T06:36:09;92368.63;;;0.35;100.00
52735;BME280;38631;47.572;10.704;2022-12-07T06:38:35;92373.56;;;0.37;100.00
52735;BME280;38631;47.572;10.704;2022-12-07T06:41:00;92376.88;;;0.27;100.00
52735;BME280;38631;47.572;10.704;2022-12-07T06:43:25;92372.28;;;0.12;100.00
52735;BME280;38631;47.572;10.704;2022-12-07T06:45:51;92372.31;;;0.17;100.00
52735;BME280;38631;47.572;10.704;2022-12-07T06:48:16;92376.63;;;0.29;100.00
52735;BME280;38631;47.572;10.704;2022-12-07T06:50:44;92375.75;;;0.18;100.00
52735;BME280;38631;47.572;10.704;2022-12-07T06:53:10;92381.81;;;0.24;100.00
52735;BME280;38631;47.572;10.704;2022-12-07T06:55:35;92380.75;;;0.25;100.00
52735;BME280;38631;47.572;10.704;2022-12-07T06:58:01;92378.03;;;0.14;100.00
52735;BME280;38631;47.572;10.704;2022-12-07T07:00:27;92374.88;;;0.12;100.00
52735;BME280;38631;47.572;10.704;2022-12-07T07:02:53;92375.91;;;0.11;100.00
52735;BME280;38631;47.572;10.704;2022-12-07T07:05:18;92377.97;;;0.09;100.00
52735;BME280;38631;47.572;10.704;2022-12-07T07:07:46;92382.19;;;0.10;100.00
52735;BME280;38631;47.572;10.704;2022-12-07T07:10:13;92380.66;;;0.14;100.00
52735;BME280;38631;47.572;10.704;2022-12-07T07:12:38;92383.53;;;0.13;100.00
52735;BME280;38631;47.572;10.704;2022-12-07T07:15:04;92387.47;;;0.15;100.00
52735;BME280;38631;47.572;10.704;2022-12-07T07:17:29;92400.97;;;0.12;100.00
52735;BME280;38631;47.572;10.704;2022-12-07T07:19:55;92398.44;;;0.17;100.00
52735;BME280;38631;47.572;10.704;2022-12-07T07:22:20;92398.00;;;0.26;100.00
52735;BME280;38631;47.572;10.704;2022-12-07T07:24:45;92402.47;;;0.25;100.00
52735;BME280;38631;47.572;10.704;2022-12-07T07:27:11;92408.09;;;0.17;100.00
52735;BME280;38631;47.572;10.704;2022-12-07T07:29:36;92402.03;;;0.11;100.00
52735;BME280;38631;47.572;10.704;2022-12-07T07:32:01;92406.75;;;0.14;100.00
52735;BME280;38631;47.572;10.704;2022-12-07T07:34:27;92399.75;;;0.20;100.00
52735;BME280;38631;47.572;10.704;2022-12-07T07:36:52;92412.13;;;0.30;100.00
52735;BME280;38631;47.572;10.704;2022-12-07T07:39:18;92403.84;;;0.33;100.00
52735;BME280;38631;47.572;10.704;2022-12-07T07:41:43;92402.53;;;0.08;100.00
52735;BME280;38631;47.572;10.704;2022-12-07T07:44:09;92409.50;;;0.03;100.00
52735;BME280;38631;47.572;10.704;2022-12-07T07:46:35;92414.53;;;0.09;100.00
52735;BME280;38631;47.572;10.704;2022-12-07T07:49:00;92406.47;;;0.11;100.00
52735;BME280;38631;47.572;10.704;2022-12-07T07:51:26;92409.03;;;0.06;100.00
52735;BME280;38631;47.572;10.704;2022-12-07T07:53:51;92407.13;;;0.01;100.00
52735;BME280;38631;47.572;10.704;2022-12-07T07:56:16;92400.63;;;0.04;100.00
52735;BME280;38631;47.572;10.704;2022-12-07T07:58:42;92403.25;;;0.04;100.00
52735;BME280;38631;47.572;10.704;2022-12-07T08:01:07;92403.59;;;0.12;100.00
52735;BME280;38631;47.572;10.704;2022-12-07T08:03:33;92404.41;;;0.13;100.00
52735;BME280;38631;47.572;10.704;2022-12-07T08:05:59;92407.41;;;0.05;100.00
52735;BME280;38631;47.572;10.704;2022-12-07T08:08:24;92402.75;;;0.07;100.00
52735;BME280;38631;47.572;10.704;2022-12-07T08:10:50;92406.63;;;0.04;100.00
52735;BME280;38631;47.572;10.704;2022-12-07T08:13:16;92409.84;;;0.11;100.00
52735;BME280;38631;47.572;10.704;2022-12-07T08:15:46;92413.81;;;0.14;100.00
52735;BME280;38631;47.572;10.704;2022-12-07T08:18:12;92409.63;;;0.13;100.00
52735;BME280;38631;47.572;10.704;2022-12-07T08:20:38;92416.28;;;0.26;100.00
52735;BME280;38631;47.572;10.704;2022-12-07T08:23:05;92413.97;;;0.29;100.00
52735;BME280;38631;47.572;10.704;2022-12-07T08:25:31;92412.81;;;0.20;100.00
52735;BME280;38631;47.572;10.704;2022-12-07T08:27:57;92415.19;;;0.21;100.00
52735;BME280;38631;47.572;10.704;2022-12-07T08:30:22;92412.47;;;0.11;100.00
52735;BME280;38631;47.572;10.704;2022-12-07T08:32:48;92422.84;;;0.06;100.00
52735;BME280;38631;47.572;10.704;2022-12-07T08:35:14;92422.97;;;0.16;100.00
52735;BME280;38631;47.572;10.704;2022-12-07T08:37:40;92422.78;;;0.23;100.00
52735;BME280;38631;47.572;10.704;2022-12-07T08:40:07;92429.22;;;0.15;100.00
52735;BME280;38631;47.572;10.704;2022-12-07T08:42:33;92428.47;;;0.20;100.00
52735;BME280;38631;47.572;10.704;2022-12-07T08:45:07;92431.28;;;0.13;100.00
52735;BME280;38631;47.572;10.704;2022-12-07T08:47:34;92431.59;;;0.17;100.00
52735;BME280;38631;47.572;10.704;2022-12-07T08:50:01;92428.25;;;0.21;100.00
52735;BME280;38631;47.572;10.704;2022-12-07T08:52:30;92432.50;;;0.28;100.00
52735;BME280;38631;47.572;10.704;2022-12-07T08:54:55;92435.41;;;0.31;100.00
52735;BME280;38631;47.572;10.704;2022-12-07T08:57:21;92431.97;;;0.26;100.00
52735;BME280;38631;47.572;10.704;2022-12-07T08:59:47;92434.63;;;0.31;100.00
52735;BME280;38631;47.572;10.704;2022-12-07T09:02:12;92435.41;;;0.09;100.00
52735;BME280;38631;47.572;10.704;2022-12-07T09:04:37;92437.59;;;0.17;100.00
52735;BME280;38631;47.572;10.704;2022-12-07T09:07:03;92438.63;;;0.16;100.00
52735;BME280;38631;47.572;10.704;2022-12-07T09:09:29;92439.41;;;0.17;100.00
52735;BME280;38631;47.572;10.704;2022-12-07T09:11:54;92441.25;;;0.16;100.00
52735;BME280;38631;47.572;10.704;2022-12-07T09:14:20;92432.75;;;0.04;100.00
52735;BME280;38631;47.572;10.704;2022-12-07T09:16:45;92440.56;;;0.04;100.00
52735;BME280;38631;47.572;10.704;2022-12-07T09:19:10;92441.63;;;0.03;100.00
52735;BME280;38631;47.572;10.704;2022-12-07T09:21:36;92446.78;;;-0.02;100.00
52735;BME280;38631;47.572;10.704;2022-12-07T09:24:01;92432.75;;;0.04;100.00
52735;BME280;38631;47.572;10.704;2022-12-07T09:26:27;92445.78;;;0.04;100.00
52735;BME280;38631;47.572;10.704;2022-12-07T09:28:52;92447.13;;;0.07;100.00
52735;BME280;38631;47.572;10.704;2022-12-07T09:31:17;92446.22;;;-0.04;100.00
52735;BME280;38631;47.572;10.704;2022-12-07T09:33:43;92450.53;;;0.07;100.00
52735;BME280;38631;47.572;10.704;2022-12-07T09:36:09;92439.56;;;0.05;100.00
52735;BME280;38631;47.572;10.704;2022-12-07T09:38:35;92446.28;;;0.01;100.00
52735;BME280;38631;47.572;10.704;2022-12-07T09:41:05;92452.06;;;0.03;100.00
52735;BME280;38631;47.572;10.704;2022-12-07T09:43:32;92442.94;;;-0.16;100.00
52735;BME280;38631;47.572;10.704;2022-12-07T09:45:58;92442.28;;;-0.07;100.00
52735;BME280;38631;47.572;10.704;2022-12-07T09:50:58;92429.22;;;-0.07;100.00
52735;BME280;38631;47.572;10.704;2022-12-07T09:53:28;92436.63;;;0.02;100.00
52735;BME280;38631;47.572;10.704;2022-12-07T09:55:55;92436.63;;;0.02;100.00
52735;BME280;38631;47.572;10.704;2022-12-07T09:58:23;92437.00;;;0.10;100.00
52735;BME280;38631;47.572;10.704;2022-12-07T10:00:57;92432.91;;;-0.03;100.00
52735;BME280;38631;47.572;10.704;2022-12-07T10:03:25;92431.28;;;-0.09;100.00
52735;BME280;38631;47.572;10.704;2022-12-07T10:05:52;92433.16;;;-0.04;100.00
52735;BME280;38631;47.572;10.704;2022-12-07T10:08:18;92425.78;;;-0.12;100.00
52735;BME280;38631;47.572;10.704;2022-12-07T10:10:45;92434.38;;;-0.12;100.00
52735;BME280;38631;47.572;10.704;2022-12-07T10:13:13;92424.00;;;-0.07;100.00
52735;BME280;38631;47.572;10.704;2022-12-07T10:20:47;92403.09;;;-0.29;100.00
52735;BME280;38631;47.572;10.704;2022-12-07T10:23:17;92409.72;;;-0.21;100.00
52735;BME280;38631;47.572;10.704;2022-12-07T10:25:43;92406.28;;;-0.05;100.00
52735;BME280;38631;47.572;10.704;2022-12-07T10:28:18;92404.50;;;-0.21;100.00
52735;BME280;38631;47.572;10.704;2022-12-07T10:30:57;92405.66;;;-0.34;100.00
52735;BME280;38631;47.572;10.704;2022-12-07T10:33:38;92397.06;;;-0.12;100.00
52735;BME280;38631;47.572;10.704;2022-12-07T10:36:36;92395.66;;;-0.20;100.00
52735;BME280;38631;47.572;10.704;2022-12-07T10:39:14;92395.34;;;-0.24;100.00
52735;BME280;38631;47.572;10.704;2022-12-07T10:41:57;92402.75;;;-0.15;100.00
52735;BME280;38631;47.572;10.704;2022-12-07T10:44:26;92398.34;;;-0.15;100.00
52735;BME280;38631;47.572;10.704;2022-12-07T10:48:15;92397.59;;;-0.10;100.00
52735;BME280;38631;47.572;10.704;2022-12-07T10:50:27;92395.84;;;-0.27;100.00
52735;BME280;38631;47.572;10.704;2022-12-07T10:58:49;92384.97;;;-0.18;100.00
52735;BME280;38631;47.572;10.704;2022-12-07T11:01:33;92379.38;;;-0.05;100.00
52735;BME280;38631;47.572;10.704;2022-12-07T11:21:04;92372.09;;;-0.03;100.00
52735;BME280;38631;47.572;10.704;2022-12-07T11:34:45;92352.16;;;-0.14;100.00
52735;BME280;38631;47.572;10.704;2022-12-07T11:37:18;92353.09;;;0.02;100.00
52735;BME280;38631;47.572;10.704;2022-12-07T11:39:50;92352.31;;;0.01;100.00
52735;BME280;38631;47.572;10.704;2022-12-07T11:42:41;92349.53;;;0.08;100.00
52735;BME280;38631;47.572;10.704;2022-12-07T11:45:43;92346.16;;;0.12;100.00
52735;BME280;38631;47.572;10.704;2022-12-07T11:48:33;92336.66;;;0.01;100.00
52735;BME280;38631;47.572;10.704;2022-12-07T11:51:02;92332.53;;;0.05;100.00
52735;BME280;38631;47.572;10.704;2022-12-07T11:56:14;92333.72;;;0.19;100.00
52735;BME280;38631;47.572;10.704;2022-12-07T11:58:48;92325.88;;;0.19;100.00
52735;BME280;38631;47.572;10.704;2022-12-07T12:03:51;92323.81;;;0.21;100.00
52735;BME280;38631;47.572;10.704;2022-12-07T12:06:17;92315.25;;;0.26;100.00
52735;BME280;38631;47.572;10.704;2022-12-07T12:17:32;92301.81;;;0.45;100.00
52735;BME280;38631;47.572;10.704;2022-12-07T12:22:58;92292.16;;;0.45;100.00
52735;BME280;38631;47.572;10.704;2022-12-07T12:25:28;92290.81;;;0.42;100.00
52735;BME280;38631;47.572;10.704;2022-12-07T12:27:56;92291.13;;;0.46;100.00
52735;BME280;38631;47.572;10.704;2022-12-07T12:30:29;92286.78;;;0.57;100.00
52735;BME280;38631;47.572;10.704;2022-12-07T12:33:03;92281.38;;;0.36;100.00
52735;BME280;38631;47.572;10.704;2022-12-07T12:35:34;92283.25;;;0.41;100.00
52735;BME280;38631;47.572;10.704;2022-12-07T12:38:24;92277.56;;;0.49;100.00
52735;BME280;38631;47.572;10.704;2022-12-07T12:40:52;92274.44;;;0.52;100.00
52735;BME280;38631;47.572;10.704;2022-12-07T12:43:44;92271.06;;;0.52;100.00
52735;BME280;38631;47.572;10.704;2022-12-07T12:54:36;92274.75;;;0.56;100.00
52735;BME280;38631;47.572;10.704;2022-12-07T12:57:12;92274.22;;;0.54;100.00
52735;BME280;38631;47.572;10.704;2022-12-07T13:15:33;92258.50;;;0.86;100.00
52735;BME280;38631;47.572;10.704;2022-12-07T13:18:02;92268.69;;;0.88;100.00
52735;BME280;38631;47.572;10.704;2022-12-07T13:20:54;92259.06;;;0.93;100.00
52735;BME280;38631;47.572;10.704;2022-12-07T13:29:09;92258.22;;;0.82;100.00
52735;BME280;38631;47.572;10.704;2022-12-07T13:31:45;92251.41;;;0.81;100.00
52735;BME280;38631;47.572;10.704;2022-12-07T13:34:37;92255.34;;;0.84;100.00
52735;BME280;38631;47.572;10.704;2022-12-07T13:37:14;92253.50;;;0.79;100.00
52735;BME280;38631;47.572;10.704;2022-12-07T13:39:49;92249.56;;;0.77;100.00
52735;BME280;38631;47.572;10.704;2022-12-07T13:42:24;92245.13;;;0.82;100.00
52735;BME280;38631;47.572;10.704;2022-12-07T13:44:51;92252.50;;;0.85;100.00
52735;BME280;38631;47.572;10.704;2022-12-07T13:47:30;92242.78;;;0.81;100.00
52735;BME280;38631;47.572;10.704;2022-12-07T13:49:57;92248.06;;;0.86;100.00
52735;BME280;38631;47.572;10.704;2022-12-07T13:52:28;92249.03;;;0.80;100.00
52735;BME280;38631;47.572;10.704;2022-12-07T13:55:16;92248.03;;;0.81;100.00
52735;BME280;38631;47.572;10.704;2022-12-07T13:57:47;92238.31;;;0.76;100.00
52735;BME280;38631;47.572;10.704;2022-12-07T14:00:40;92238.28;;;0.71;100.00
52735;BME280;38631;47.572;10.704;2022-12-07T14:05:38;92238.03;;;0.73;100.00
52735;BME280;38631;47.572;10.704;2022-12-07T14:10:39;92229.66;;;0.71;100.00
52735;BME280;38631;47.572;10.704;2022-12-07T14:15:54;92232.56;;;0.74;100.00
52735;BME280;38631;47.572;10.704;2022-12-07T14:18:37;92235.72;;;0.76;100.00
52735;BME280;38631;47.572;10.704;2022-12-07T14:21:15;92232.34;;;0.81;100.00
52735;BME280;38631;47.572;10.704;2022-12-07T14:23:41;92226.56;;;0.79;100.00
52735;BME280;38631;47.572;10.704;2022-12-07T14:26:18;92233.38;;;0.80;100.00
52735;BME280;38631;47.572;10.704;2022-12-07T14:28:44;92231.44;;;0.65;100.00
52735;BME280;38631;47.572;10.704;2022-12-07T14:31:15;92233.03;;;0.66;100.00
52735;BME280;38631;47.572;10.704;2022-12-07T14:33:41;92230.66;;;0.64;100.00
52735;BME280;38631;47.572;10.704;2022-12-07T14:36:13;92232.72;;;0.62;100.00
52735;BME280;38631;47.572;10.704;2022-12-07T14:38:39;92229.38;;;0.67;100.00
52735;BME280;38631;47.572;10.704;2022-12-07T14:41:13;92232.75;;;0.68;100.00
52735;BME280;38631;47.572;10.704;2022-12-07T14:43:58;92230.72;;;0.75;100.00
52735;BME280;38631;47.572;10.704;2022-12-07T14:46:24;92232.03;;;0.77;100.00
52735;BME280;38631;47.572;10.704;2022-12-07T14:48:49;92228.91;;;0.75;100.00
52735;BME280;38631;47.572;10.704;2022-12-07T14:51:15;92229.44;;;0.77;100.00
52735;BME280;38631;47.572;10.704;2022-12-07T14:53:44;92235.69;;;0.71;100.00
52735;BME280;38631;47.572;10.704;2022-12-07T14:56:11;92234.38;;;0.74;100.00
52735;BME280;38631;47.572;10.704;2022-12-07T14:58:37;92223.41;;;0.77;100.00
52735;BME280;38631;47.572;10.704;2022-12-07T15:01:02;92224.72;;;0.74;100.00